Terminal Aerodrome Forecast
Issued by NWS

Current Version | Previous Version | Text Only | Print | Product List | Glossary On
Versions: 1 2 3 4 5 6 7 8 9 10 11 12 13 14 15
248
FTUS43 KMQT 162320
TAFSAW
TAF
KSAW 162320Z 1700/1724 12004KT P6SM BKN040
     FM170200 14004KT P6SM BKN025
     FM170300 15004KT P6SM BKN015=

USA.gov is the U.S. government's official web portal to all federal, state and local government web resources and services.